createdAt,value
2023-02-06T00:03:01.258Z,11.25
2023-02-06T00:08:06.632Z,11.19
2023-02-06T00:13:10.262Z,11.28
2023-02-06T00:18:13.936Z,11.38
2023-02-06T00:23:19.231Z,11.32
2023-02-06T00:28:22.879Z,11.18
2023-02-06T00:33:28.696Z,10.68
2023-02-06T00:38:34.025Z,10.76
2023-02-06T00:43:37.679Z,10.98
2023-02-06T00:48:41.364Z,11.19
2023-02-06T00:53:46.691Z,11.11
2023-02-06T00:58:50.341Z,10.88
2023-02-06T01:03:54.683Z,10.49
2023-02-06T01:08:59.975Z,10.34
2023-02-06T01:14:03.647Z,10.48
2023-02-06T01:19:07.283Z,10.78
2023-02-06T01:24:12.572Z,11.08
2023-02-06T01:29:16.260Z,10.71
2023-02-06T01:34:19.875Z,10.45
2023-02-06T01:39:25.189Z,10.37
2023-02-06T01:44:28.840Z,10.21
2023-02-06T01:49:36.165Z,10.11
2023-02-06T01:54:42.134Z,9.93
2023-02-06T01:59:51.425Z,9.74
2023-02-06T02:04:56.521Z,9.77
2023-02-06T02:10:02.035Z,10.11
2023-02-06T02:15:06.288Z,9.93
2023-02-06T02:20:47.762Z,9.97
2023-02-06T02:26:32.368Z,9.94
2023-02-06T02:31:53.229Z,9.85
2023-02-06T02:37:04.060Z,9.92
2023-02-06T02:42:14.667Z,9.77
2023-02-06T02:47:22.359Z,9.69
2023-02-06T02:52:27.805Z,9.61
2023-02-06T02:57:32.142Z,9.63
2023-02-06T03:02:38.489Z,9.54
2023-02-06T03:07:51.705Z,9.66
2023-02-06T03:13:02.435Z,9.65
2023-02-06T03:18:12.512Z,9.58
2023-02-06T03:23:22.648Z,9.71
2023-02-06T03:28:32.431Z,9.69
2023-02-06T03:33:40.908Z,9.73
2023-02-06T03:38:47.400Z,9.69
2023-02-06T03:43:53.100Z,9.66
2023-02-06T03:49:01.300Z,9.50
2023-02-06T03:54:08.689Z,9.48
2023-02-06T03:59:12.538Z,9.41
2023-02-06T04:04:17.212Z,9.33
2023-02-06T04:09:22.530Z,9.17
2023-02-06T04:14:26.150Z,8.95
2023-02-06T04:19:29.859Z,9.13
2023-02-06T04:24:35.208Z,9.15
2023-02-06T04:29:39.168Z,9.15
2023-02-06T04:34:42.819Z,9.22
2023-02-06T04:39:49.111Z,9.22
2023-02-06T04:44:51.972Z,9.26
2023-02-06T04:49:55.646Z,9.17
2023-02-06T04:55:00.930Z,9.25
2023-02-06T05:00:05.839Z,9.23
2023-02-06T05:05:10.708Z,9.14
2023-02-06T05:10:16.438Z,9.18
2023-02-06T05:15:20.220Z,9.21
2023-02-06T05:20:23.887Z,9.10
2023-02-06T05:25:29.202Z,9.09
2023-02-06T05:30:33.480Z,9.11
2023-02-06T05:35:38.902Z,9.09
2023-02-06T05:40:44.207Z,9.16
2023-02-06T05:45:57.294Z,8.92
2023-02-06T05:51:17.081Z,8.66
2023-02-06T05:56:23.345Z,8.73
2023-02-06T06:01:27.169Z,8.69
2023-02-06T06:06:30.897Z,8.72
2023-02-06T06:11:36.225Z,8.79
2023-02-06T06:16:39.875Z,8.73
2023-02-06T06:21:43.549Z,8.66
2023-02-06T06:26:49.883Z,8.53
2023-02-06T06:31:52.810Z,8.46
2023-02-06T06:36:56.520Z,8.41
2023-02-06T06:42:01.821Z,8.33
2023-02-06T06:47:05.494Z,8.14
2023-02-06T06:52:22.970Z,8.26
2023-02-06T06:57:31.847Z,8.04
2023-02-06T07:02:35.511Z,8.21
2023-02-06T07:07:39.524Z,8.23
2023-02-06T07:12:44.929Z,8.28
2023-02-06T07:17:48.871Z,8.35
2023-02-06T07:22:52.552Z,8.32
2023-02-06T07:27:57.852Z,8.43
2023-02-06T07:33:01.501Z,8.43
2023-02-06T07:38:05.167Z,8.47
2023-02-06T07:43:10.459Z,8.46
2023-02-06T07:48:16.222Z,8.54
2023-02-06T07:53:19.850Z,8.62
2023-02-06T07:58:25.120Z,8.57
2023-02-06T08:03:28.814Z,8.57
2023-02-06T08:08:32.440Z,8.60
2023-02-06T08:13:38.758Z,8.58
2023-02-06T08:18:41.837Z,8.54
2023-02-06T08:23:46.110Z,8.50
2023-02-06T08:28:52.528Z,8.46
2023-02-06T08:33:56.903Z,8.47
2023-02-06T08:39:01.135Z,8.52
2023-02-06T08:44:08.315Z,8.56
2023-02-06T08:49:14.833Z,8.55
2023-02-06T08:54:19.877Z,8.51
2023-02-06T08:59:25.496Z,8.48
2023-02-06T09:04:31.456Z,8.38
2023-02-06T09:09:35.077Z,8.31
2023-02-06T09:14:40.636Z,8.33
2023-02-06T09:19:44.231Z,8.39
2023-02-06T09:24:47.845Z,8.35
2023-02-06T09:29:54.115Z,8.30
2023-02-06T09:34:57.770Z,8.23
2023-02-06T09:40:01.420Z,8.23
2023-02-06T09:45:12.642Z,8.18
2023-02-06T09:50:24.698Z,8.11
2023-02-06T09:55:35.202Z,8.16
2023-02-06T10:00:52.807Z,8.20
2023-02-06T10:06:13.351Z,8.25
2023-02-06T10:11:21.488Z,8.27
2023-02-06T10:16:39.485Z,8.18
2023-02-06T10:21:47.422Z,8.20
2023-02-06T10:26:53.835Z,8.26
2023-02-06T10:32:04.085Z,8.27
2023-02-06T10:37:22.025Z,8.25
2023-02-06T10:42:38.495Z,8.30
2023-02-06T10:47:48.591Z,8.33
2023-02-06T10:52:54.287Z,8.33
2023-02-06T10:58:06.183Z,8.30
2023-02-06T11:03:16.469Z,8.18
2023-02-06T11:08:23.760Z,8.18
2023-02-06T11:13:30.544Z,8.10
2023-02-06T11:18:38.144Z,8.07
2023-02-06T11:23:42.044Z,7.99
2023-02-06T11:28:52.893Z,8.01
2023-02-06T11:33:58.666Z,8.08
2023-02-06T11:39:05.340Z,8.06
2023-02-06T11:44:15.438Z,8.08
2023-02-06T11:49:26.694Z,8.07
2023-02-06T11:54:32.260Z,8.05
2023-02-06T11:59:38.120Z,8.02
2023-02-06T12:04:43.526Z,8.01
2023-02-06T12:09:47.205Z,7.98
2023-02-06T12:14:55.935Z,7.92
2023-02-06T12:20:06.722Z,7.88
2023-02-06T12:25:25.562Z,7.93
2023-02-06T12:30:38.250Z,7.86
2023-02-06T12:35:47.599Z,7.70
2023-02-06T12:41:06.013Z,7.69
2023-02-06T12:46:16.760Z,7.68
2023-02-06T12:51:27.063Z,7.56
2023-02-06T12:56:35.092Z,7.28
2023-02-06T13:01:48.608Z,7.22
2023-02-06T13:06:57.390Z,7.07
2023-02-06T13:12:09.770Z,6.94
2023-02-06T13:17:18.617Z,6.86
2023-02-06T13:22:49.080Z,6.69
2023-02-06T13:27:53.360Z,6.65
2023-02-06T13:32:59.196Z,6.62
2023-02-06T13:38:28.761Z,6.86
2023-02-06T13:43:33.112Z,6.99
2023-02-06T13:48:55.571Z,7.01
2023-02-06T13:54:27.625Z,6.99
2023-02-06T13:59:35.441Z,7.06
2023-02-06T14:04:40.486Z,7.11
2023-02-06T14:10:13.312Z,7.19
2023-02-06T14:15:26.341Z,7.25
2023-02-06T14:20:39.448Z,7.08
2023-02-06T14:25:58.968Z,6.95
2023-02-06T14:31:13.852Z,6.81
2023-02-06T14:36:33.942Z,6.78
2023-02-06T14:41:39.335Z,6.65
2023-02-06T14:46:43.240Z,6.59
2023-02-06T14:51:51.287Z,6.54
2023-02-06T14:57:00.082Z,6.51
2023-02-06T15:02:15.111Z,6.46
2023-02-06T15:07:25.436Z,6.40
2023-02-06T15:12:30.987Z,6.34
2023-02-06T15:17:34.582Z,6.30
2023-02-06T15:22:38.226Z,6.33
2023-02-06T15:27:43.587Z,6.68
2023-02-06T15:32:51.120Z,7.10
2023-02-06T15:37:55.690Z,7.33
2023-02-06T15:43:02.605Z,7.50
2023-02-06T15:48:12.944Z,7.72
2023-02-06T15:53:20.910Z,8.02
2023-02-06T15:58:26.678Z,8.31
2023-02-06T16:03:31.126Z,8.73
2023-02-06T16:08:36.734Z,9.14
2023-02-06T16:13:42.368Z,9.57
2023-02-06T16:18:46.072Z,9.65
2023-02-06T16:23:51.794Z,9.90
2023-02-06T16:29:00.740Z,10.28
2023-02-06T16:34:20.936Z,10.49
2023-02-06T16:39:24.640Z,10.55
2023-02-06T16:44:43.802Z,10.73
2023-02-06T16:49:48.486Z,10.74
2023-02-06T16:54:52.717Z,10.49
2023-02-06T16:59:58.232Z,10.57
2023-02-06T17:05:01.977Z,11.02
2023-02-06T17:10:06.269Z,11.28
2023-02-06T17:15:13.180Z,11.70
2023-02-06T17:20:28.753Z,12.14
2023-02-06T17:25:32.614Z,12.48
2023-02-06T17:30:38.921Z,12.75
2023-02-06T17:35:42.903Z,13.15
2023-02-06T17:40:46.709Z,13.58
2023-02-06T17:45:52.081Z,13.99
2023-02-06T17:50:55.720Z,14.13
2023-02-06T17:56:03.460Z,14.15
2023-02-06T18:01:12.150Z,13.98
2023-02-06T18:06:16.000Z,14.13
2023-02-06T18:11:22.431Z,14.51
2023-02-06T18:16:28.904Z,14.55
2023-02-06T18:21:32.566Z,15.09
2023-02-06T18:26:36.334Z,15.43
2023-02-06T18:31:41.731Z,15.62
2023-02-06T18:36:46.282Z,15.81
2023-02-06T18:41:49.967Z,15.91
2023-02-06T18:46:55.324Z,16.17
2023-02-06T18:51:58.953Z,16.22
2023-02-06T18:57:03.360Z,16.58
2023-02-06T19:02:10.181Z,16.69
2023-02-06T19:07:14.023Z,16.56
2023-02-06T19:12:17.686Z,16.71
2023-02-06T19:17:24.388Z,16.78
2023-02-06T19:22:28.066Z,16.69
2023-02-06T19:27:32.398Z,16.89
2023-02-06T19:32:37.854Z,16.98
2023-02-06T19:37:41.684Z,16.99
2023-02-06T19:42:45.334Z,17.00
2023-02-06T19:47:50.624Z,16.92
2023-02-06T19:52:54.277Z,16.71
2023-02-06T19:57:57.918Z,16.51
2023-02-06T20:03:03.238Z,16.61
2023-02-06T20:08:07.005Z,16.54
2023-02-06T20:13:10.608Z,16.88
2023-02-06T20:18:15.891Z,17.05
2023-02-06T20:23:19.524Z,17.25
2023-02-06T20:28:23.485Z,17.45
2023-02-06T20:33:28.763Z,17.11
2023-02-06T20:38:32.412Z,16.95
2023-02-06T20:43:37.168Z,17.15
2023-02-06T20:48:42.551Z,17.03
2023-02-06T20:53:46.166Z,17.18
2023-02-06T20:58:50.434Z,17.09
2023-02-06T21:03:57.297Z,17.16
2023-02-06T21:09:00.926Z,17.10
2023-02-06T21:14:05.997Z,17.03
2023-02-06T21:19:12.670Z,16.91
2023-02-06T21:24:17.244Z,17.05
2023-02-06T21:29:20.903Z,16.97
2023-02-06T21:34:26.207Z,16.97
2023-02-06T21:39:29.876Z,16.92
2023-02-06T21:44:33.518Z,16.88
2023-02-06T21:49:38.901Z,16.83
2023-02-06T21:54:42.525Z,16.82
2023-02-06T21:59:46.175Z,16.75
2023-02-06T22:04:52.397Z,16.81
2023-02-06T22:09:56.035Z,16.67
2023-02-06T22:14:59.646Z,16.51
2023-02-06T22:20:05.278Z,16.18
2023-02-06T22:25:10.122Z,16.37
2023-02-06T22:30:14.521Z,16.40
2023-02-06T22:35:19.920Z,16.46
2023-02-06T22:40:23.633Z,16.60
2023-02-06T22:45:27.335Z,16.49
2023-02-06T22:50:32.585Z,16.35
2023-02-06T22:55:40.216Z,16.42
2023-02-06T23:00:43.830Z,16.38
2023-02-06T23:05:50.079Z,16.27
2023-02-06T23:10:53.707Z,16.32
2023-02-06T23:15:57.743Z,16.40
2023-02-06T23:21:05.924Z,16.57
2023-02-06T23:26:10.842Z,16.68
2023-02-06T23:31:14.749Z,16.63
2023-02-06T23:36:22.013Z,16.56
2023-02-06T23:41:27.587Z,16.53
2023-02-06T23:46:33.206Z,16.53
2023-02-06T23:51:39.068Z,16.38
2023-02-06T23:56:42.736Z,16.28
